sensor_id;sensor_type;location;lat;lon;timestamp;P1;P2;P0
45788;PMS7003;31492;54.856;26.318;2023-05-23T00:01:40;8.4;7.8;6.2
45788;PMS7003;31492;54.856;26.318;2023-05-23T00:06:36;8.5;7.7;6.2
45788;PMS7003;31492;54.856;26.318;2023-05-23T00:11:32;8.1;7.8;6.4
45788;PMS7003;31492;54.856;26.318;2023-05-23T00:16:36;9.5;8.3;6.6
45788;PMS7003;31492;54.856;26.318;2023-05-23T00:21:26;8.9;8.1;6.5
45788;PMS7003;31492;54.856;26.318;2023-05-23T00:26:26;8.6;7.7;6.4
45788;PMS7003;31492;54.856;26.318;2023-05-23T00:31:50;9.2;7.4;5.6
45788;PMS7003;31492;54.856;26.318;2023-05-23T00:36:50;7.5;6.7;5.5
45788;PMS7003;31492;54.856;26.318;2023-05-23T00:41:26;9.7;8.7;6.8
45788;PMS7003;31492;54.856;26.318;2023-05-23T00:46:48;9;8;6.8
45788;PMS7003;31492;54.856;26.318;2023-05-23T00:51:26;9.9;8.4;6.8
45788;PMS7003;31492;54.856;26.318;2023-05-23T00:56:26;9;8.3;6.5
45788;PMS7003;31492;54.856;26.318;2023-05-23T01:01:26;9.7;8.6;7.1
45788;PMS7003;31492;54.856;26.318;2023-05-23T01:06:26;9.2;8.5;6.9
45788;PMS7003;31492;54.856;26.318;2023-05-23T01:11:37;10.5;9.9;8
45788;PMS7003;31492;54.856;26.318;2023-05-23T01:16:42;10.8;10;8
45788;PMS7003;31492;54.856;26.318;2023-05-23T01:21:26;10.1;9.6;7.8
45788;PMS7003;31492;54.856;26.318;2023-05-23T01:26:30;11.5;10.1;8.5
45788;PMS7003;31492;54.856;26.318;2023-05-23T01:31:36;11.2;10;8.1
45788;PMS7003;31492;54.856;26.318;2023-05-23T01:36:26;10.4;9.7;8
45788;PMS7003;31492;54.856;26.318;2023-05-23T01:41:50;10.2;9.5;7.6
45788;PMS7003;31492;54.856;26.318;2023-05-23T01:46:46;10.1;8.9;7
45788;PMS7003;31492;54.856;26.318;2023-05-23T01:51:32;10.4;9.4;7.4
45788;PMS7003;31492;54.856;26.318;2023-05-23T01:56:26;10.7;9.9;8
45788;PMS7003;31492;54.856;26.318;2023-05-23T02:01:48;9.9;8.7;7.5
45788;PMS7003;31492;54.856;26.318;2023-05-23T02:06:24;9.5;8.5;7.3
45788;PMS7003;31492;54.856;26.318;2023-05-23T02:11:26;10.2;9.1;7.1
45788;PMS7003;31492;54.856;26.318;2023-05-23T02:16:46;9.9;9;7.3
45788;PMS7003;31492;54.856;26.318;2023-05-23T02:21:24;9.8;9.1;7.7
45788;PMS7003;31492;54.856;26.318;2023-05-23T02:26:38;10.6;9.3;7.6
45788;PMS7003;31492;54.856;26.318;2023-05-23T02:31:50;10.6;9.7;7.9
45788;PMS7003;31492;54.856;26.318;2023-05-23T02:37:14;10.6;9.9;8
45788;PMS7003;31492;54.856;26.318;2023-05-23T02:41:44;11;10.2;8.3
45788;PMS7003;31492;54.856;26.318;2023-05-23T02:46:36;11.1;10;8.2
45788;PMS7003;31492;54.856;26.318;2023-05-23T02:51:26;11.9;9.9;8.1
45788;PMS7003;31492;54.856;26.318;2023-05-23T02:56:48;11.3;9.8;8
45788;PMS7003;31492;54.856;26.318;2023-05-23T03:01:26;11.7;9.9;8.1
45788;PMS7003;31492;54.856;26.318;2023-05-23T03:06:40;11.3;10.3;8.7
45788;PMS7003;31492;54.856;26.318;2023-05-23T03:11:26;10.9;9.3;7.5
45788;PMS7003;31492;54.856;26.318;2023-05-23T03:16:26;10.5;9.6;7.6
45788;PMS7003;31492;54.856;26.318;2023-05-23T03:21:24;12.3;11.4;9.2
45788;PMS7003;31492;54.856;26.318;2023-05-23T03:26:42;12.7;10.4;8.7
45788;PMS7003;31492;54.856;26.318;2023-05-23T03:31:42;13.3;12.2;10
45788;PMS7003;31492;54.856;26.318;2023-05-23T03:36:34;12.2;10.7;8.8
45788;PMS7003;31492;54.856;26.318;2023-05-23T03:41:40;12.6;11.8;9.6
45788;PMS7003;31492;54.856;26.318;2023-05-23T03:46:32;11.6;11.1;9.3
45788;PMS7003;31492;54.856;26.318;2023-05-23T03:51:24;10.5;9.7;8
45788;PMS7003;31492;54.856;26.318;2023-05-23T03:56:44;10.6;9.6;8.1
45788;PMS7003;31492;54.856;26.318;2023-05-23T04:01:42;11.5;10.7;8.7
45788;PMS7003;31492;54.856;26.318;2023-05-23T04:06:24;11.3;10.4;8.8
45788;PMS7003;31492;54.856;26.318;2023-05-23T04:11:38;12.2;11.1;9.2
45788;PMS7003;31492;54.856;26.318;2023-05-23T04:16:24;12.6;11.1;9.1
45788;PMS7003;31492;54.856;26.318;2023-05-23T04:21:30;12;11.4;9.4
45788;PMS7003;31492;54.856;26.318;2023-05-23T04:26:34;12.7;11.3;9.2
45788;PMS7003;31492;54.856;26.318;2023-05-23T04:31:34;11.9;10.9;9.1
45788;PMS7003;31492;54.856;26.318;2023-05-23T04:36:30;11.5;10.9;8.8
45788;PMS7003;31492;54.856;26.318;2023-05-23T04:41:26;11.6;10.2;8.8
45788;PMS7003;31492;54.856;26.318;2023-05-23T04:46:40;11.8;10.9;8.9
45788;PMS7003;31492;54.856;26.318;2023-05-23T04:51:26;12.2;11;8.8
45788;PMS7003;31492;54.856;26.318;2023-05-23T04:56:36;11.8;11;9
45788;PMS7003;31492;54.856;26.318;2023-05-23T05:01:26;11.4;10.7;8.8
45788;PMS7003;31492;54.856;26.318;2023-05-23T05:06:39;12.2;10.8;8.7
45788;PMS7003;31492;54.856;26.318;2023-05-23T05:11:26;11;10.3;8.5
45788;PMS7003;31492;54.856;26.318;2023-05-23T05:16:26;12.6;11.3;8.9
45788;PMS7003;31492;54.856;26.318;2023-05-23T05:21:38;12.4;10.8;9
45788;PMS7003;31492;54.856;26.318;2023-05-23T05:26:32;11;10.5;8.5
45788;PMS7003;31492;54.856;26.318;2023-05-23T05:31:26;11.9;10.9;9.1
45788;PMS7003;31492;54.856;26.318;2023-05-23T05:36:26;13.5;12.2;10.1
45788;PMS7003;31492;54.856;26.318;2023-05-23T05:41:38;13.3;12;9.7
45788;PMS7003;31492;54.856;26.318;2023-05-23T05:46:36;12.2;11.3;9.5
45788;PMS7003;31492;54.856;26.318;2023-05-23T05:51:46;13;11.6;9.7
45788;PMS7003;31492;54.856;26.318;2023-05-23T05:56:45;12.5;11.8;9.9
45788;PMS7003;31492;54.856;26.318;2023-05-23T06:01:26;12.8;11.1;9.4
45788;PMS7003;31492;54.856;26.318;2023-05-23T06:06:54;13.3;11.8;9.6
45788;PMS7003;31492;54.856;26.318;2023-05-23T06:11:38;14;13.2;10.6
45788;PMS7003;31492;54.856;26.318;2023-05-23T06:16:56;15;13.2;10.8
45788;PMS7003;31492;54.856;26.318;2023-05-23T06:21:50;13.1;11.9;9.7
45788;PMS7003;31492;54.856;26.318;2023-05-23T06:26:40;12.6;11.9;9.9
45788;PMS7003;31492;54.856;26.318;2023-05-23T06:31:44;12.8;11.7;9.6
45788;PMS7003;31492;54.856;26.318;2023-05-23T06:36:50;12.8;11.6;9.6
45788;PMS7003;31492;54.856;26.318;2023-05-23T06:41:50;12.2;11.4;9.6
45788;PMS7003;31492;54.856;26.318;2023-05-23T06:46:26;13.9;12.4;10.2
45788;PMS7003;31492;54.856;26.318;2023-05-23T06:51:26;13.8;12.3;9.9
45788;PMS7003;31492;54.856;26.318;2023-05-23T06:56:26;12.9;11.1;9.2
45788;PMS7003;31492;54.856;26.318;2023-05-23T07:01:36;15.3;12.6;10.7
45788;PMS7003;31492;54.856;26.318;2023-05-23T07:06:42;12.9;12.3;10.2
45788;PMS7003;31492;54.856;26.318;2023-05-23T07:11:36;13;11.9;9.9
45788;PMS7003;31492;54.856;26.318;2023-05-23T07:16:36;13;12;9.9
45788;PMS7003;31492;54.856;26.318;2023-05-23T07:21:46;12.8;11.8;10.1
45788;PMS7003;31492;54.856;26.318;2023-05-23T07:26:36;12.8;12.1;9.8
45788;PMS7003;31492;54.856;26.318;2023-05-23T07:31:36;13.4;13.2;10.6
45788;PMS7003;31492;54.856;26.318;2023-05-23T07:36:44;12.5;11.3;9.3
45788;PMS7003;31492;54.856;26.318;2023-05-23T07:41:36;11.9;11.4;9.4
45788;PMS7003;31492;54.856;26.318;2023-05-23T07:46:40;12.6;12.1;10.1
45788;PMS7003;31492;54.856;26.318;2023-05-23T07:51:38;13.4;12.2;10.3
45788;PMS7003;31492;54.856;26.318;2023-05-23T07:56:41;12;11.4;9.6
45788;PMS7003;31492;54.856;26.318;2023-05-23T08:01:26;11.7;11;9.5
45788;PMS7003;31492;54.856;26.318;2023-05-23T08:06:48;11.8;10.8;9.2
45788;PMS7003;31492;54.856;26.318;2023-05-23T08:11:38;11.6;11;9.2
45788;PMS7003;31492;54.856;26.318;2023-05-23T08:16:36;11;10.5;8.7
45788;PMS7003;31492;54.856;26.318;2023-05-23T08:21:40;10.5;9.8;8.3
45788;PMS7003;31492;54.856;26.318;2023-05-23T08:26:36;9.8;9.1;7.7
45788;PMS7003;31492;54.856;26.318;2023-05-23T08:31:26;11.3;10;8.8
45788;PMS7003;31492;54.856;26.318;2023-05-23T08:36:40;10;9.5;8.3
45788;PMS7003;31492;54.856;26.318;2023-05-23T08:41:26;9.6;8.3;6.9
45788;PMS7003;31492;54.856;26.318;2023-05-23T08:46:48;8.7;7.8;6.8
45788;PMS7003;31492;54.856;26.318;2023-05-23T08:51:26;8.6;8;6.8
45788;PMS7003;31492;54.856;26.318;2023-05-23T08:56:32;8.4;7.9;6.7
45788;PMS7003;31492;54.856;26.318;2023-05-23T09:01:32;7.7;7;6
45788;PMS7003;31492;54.856;26.318;2023-05-23T09:06:36;8.4;7.7;6.3
45788;PMS7003;31492;54.856;26.318;2023-05-23T09:11:40;6.2;5.6;4.6
45788;PMS7003;31492;54.856;26.318;2023-05-23T09:16:38;6.8;6.1;5.3
45788;PMS7003;31492;54.856;26.318;2023-05-23T09:21:41;6.7;6.3;5.1
45788;PMS7003;31492;54.856;26.318;2023-05-23T09:26:26;7.4;6.6;5.6
45788;PMS7003;31492;54.856;26.318;2023-05-23T09:31:26;7.2;6.6;5.7
45788;PMS7003;31492;54.856;26.318;2023-05-23T09:36:32;5.3;5;4.2
45788;PMS7003;31492;54.856;26.318;2023-05-23T09:41:36;6.2;5.9;5.1
45788;PMS7003;31492;54.856;26.318;2023-05-23T09:46:40;6.9;6.4;5.5
45788;PMS7003;31492;54.856;26.318;2023-05-23T09:51:32;7.3;6.9;6.1
45788;PMS7003;31492;54.856;26.318;2023-05-23T09:56:26;6.3;6;4.9
45788;PMS7003;31492;54.856;26.318;2023-05-23T10:01:26;6.6;6.4;5.3
45788;PMS7003;31492;54.856;26.318;2023-05-23T10:06:36;7.2;6.5;5.6
45788;PMS7003;31492;54.856;26.318;2023-05-23T10:11:54;6.8;6;5.3
45788;PMS7003;31492;54.856;26.318;2023-05-23T10:16:27;7.4;6.8;5.6
45788;PMS7003;31492;54.856;26.318;2023-05-23T10:21:37;7;6.4;5.5
45788;PMS7003;31492;54.856;26.318;2023-05-23T10:26:26;7.2;6.7;5.7
45788;PMS7003;31492;54.856;26.318;2023-05-23T10:31:50;6.6;6.5;5.6
45788;PMS7003;31492;54.856;26.318;2023-05-23T10:36:56;7.4;6.5;5.8
45788;PMS7003;31492;54.856;26.318;2023-05-23T10:41:35;7.3;6.2;5.1
45788;PMS7003;31492;54.856;26.318;2023-05-23T10:46:36;8;7.2;6.2
45788;PMS7003;31492;54.856;26.318;2023-05-23T10:51:40;7.4;6.5;5.8
45788;PMS7003;31492;54.856;26.318;2023-05-23T10:56:38;7.5;6.9;6.2
45788;PMS7003;31492;54.856;26.318;2023-05-23T11:01:26;8.2;7.8;6.8
45788;PMS7003;31492;54.856;26.318;2023-05-23T11:07:00;8.2;7.3;6.1
45788;PMS7003;31492;54.856;26.318;2023-05-23T11:11:28;8.1;7.4;6.2
45788;PMS7003;31492;54.856;26.318;2023-05-23T11:16:39;8.2;7.2;5.8
45788;PMS7003;31492;54.856;26.318;2023-05-23T11:21:52;7.7;7.1;6.3
45788;PMS7003;31492;54.856;26.318;2023-05-23T11:26:41;7.6;7.1;6.1
45788;PMS7003;31492;54.856;26.318;2023-05-23T11:31:58;7.6;7.2;6.2
45788;PMS7003;31492;54.856;26.318;2023-05-23T11:36:36;7.5;6.9;6.1
45788;PMS7003;31492;54.856;26.318;2023-05-23T11:41:26;8.1;7.4;6.3
45788;PMS7003;31492;54.856;26.318;2023-05-23T11:46:58;8.2;7.7;6.7
45788;PMS7003;31492;54.856;26.318;2023-05-23T11:51:26;9.4;8.2;6.7
45788;PMS7003;31492;54.856;26.318;2023-05-23T11:56:40;8;7.1;6.1
45788;PMS7003;31492;54.856;26.318;2023-05-23T12:01:27;7.5;7;6.2
45788;PMS7003;31492;54.856;26.318;2023-05-23T12:06:26;8;7.6;6.6
45788;PMS7003;31492;54.856;26.318;2023-05-23T12:11:29;8.2;7.4;6.3
45788;PMS7003;31492;54.856;26.318;2023-05-23T12:16:26;8.2;7.5;6.2
45788;PMS7003;31492;54.856;26.318;2023-05-23T12:21:31;7.7;6.7;5.8
45788;PMS7003;31492;54.856;26.318;2023-05-23T12:26:26;8.1;7.5;6.3
45788;PMS7003;31492;54.856;26.318;2023-05-23T12:31:49;8.3;7.3;6.1
45788;PMS7003;31492;54.856;26.318;2023-05-23T12:36:44;8.5;7.6;6.3
45788;PMS7003;31492;54.856;26.318;2023-05-23T12:41:50;7.7;7.1;6.3
45788;PMS7003;31492;54.856;26.318;2023-05-23T12:46:26;8.2;7.5;6.3
45788;PMS7003;31492;54.856;26.318;2023-05-23T12:51:26;8.8;8.1;6.9
45788;PMS7003;31492;54.856;26.318;2023-05-23T12:56:34;7.9;7.3;6.3
45788;PMS7003;31492;54.856;26.318;2023-05-23T13:01:26;8.1;7.5;6.4
45788;PMS7003;31492;54.856;26.318;2023-05-23T13:06:46;8;7.7;6.5
45788;PMS7003;31492;54.856;26.318;2023-05-23T13:11:54;9.1;8.2;6.7
45788;PMS7003;31492;54.856;26.318;2023-05-23T13:16:42;8.3;7.7;6.6
45788;PMS7003;31492;54.856;26.318;2023-05-23T13:21:40;7.2;6.7;5.7
45788;PMS7003;31492;54.856;26.318;2023-05-23T13:26:26;8.1;7.1;6.1
45788;PMS7003;31492;54.856;26.318;2023-05-23T13:31:26;8;7.6;6.6
45788;PMS7003;31492;54.856;26.318;2023-05-23T13:36:40;8;7.7;6.3
45788;PMS7003;31492;54.856;26.318;2023-05-23T13:41:26;8.1;7.5;6.4
45788;PMS7003;31492;54.856;26.318;2023-05-23T13:46:32;8.2;7.7;6.2
45788;PMS7003;31492;54.856;26.318;2023-05-23T13:51:36;7.9;7.4;6.2
45788;PMS7003;31492;54.856;26.318;2023-05-23T13:56:26;7.6;7.2;6.2
45788;PMS7003;31492;54.856;26.318;2023-05-23T14:01:46;8.5;7.6;6.4
45788;PMS7003;31492;54.856;26.318;2023-05-23T14:06:26;8.3;7.4;6.2
45788;PMS7003;31492;54.856;26.318;2023-05-23T14:11:26;7.4;6.9;5.9
45788;PMS7003;31492;54.856;26.318;2023-05-23T14:16:40;8;7.5;6.2
45788;PMS7003;31492;54.856;26.318;2023-05-23T14:21:42;7.8;7.3;6.3
45788;PMS7003;31492;54.856;26.318;2023-05-23T14:26:40;7.2;6.8;5.8
45788;PMS7003;31492;54.856;26.318;2023-05-23T14:31:26;7;6.4;5.6
45788;PMS7003;31492;54.856;26.318;2023-05-23T14:37:00;6.6;6.1;5.4
45788;PMS7003;31492;54.856;26.318;2023-05-23T14:41:26;7.5;6.8;5.7
45788;PMS7003;31492;54.856;26.318;2023-05-23T14:46:38;6.3;5.8;5.2
45788;PMS7003;31492;54.856;26.318;2023-05-23T14:51:32;7;6;5
45788;PMS7003;31492;54.856;26.318;2023-05-23T14:56:38;7.1;6.6;5.7
45788;PMS7003;31492;54.856;26.318;2023-05-23T15:01:32;7.5;6.6;5.2
45788;PMS7003;31492;54.856;26.318;2023-05-23T15:06:38;7.4;6.8;5.7
45788;PMS7003;31492;54.856;26.318;2023-05-23T15:11:52;7.1;6.6;5.6
45788;PMS7003;31492;54.856;26.318;2023-05-23T15:16:40;7.4;6.4;5.7
45788;PMS7003;31492;54.856;26.318;2023-05-23T15:21:38;6.5;6;5.2
45788;PMS7003;31492;54.856;26.318;2023-05-23T15:26:48;7.3;6.4;5.4
45788;PMS7003;31492;54.856;26.318;2023-05-23T15:31:52;5.5;4.6;4
45788;PMS7003;31492;54.856;26.318;2023-05-23T15:36:38;6.7;5.9;4.9
45788;PMS7003;31492;54.856;26.318;2023-05-23T15:46:26;6.5;6.4;5.3
45788;PMS7003;31492;54.856;26.318;2023-05-23T15:51:52;5.7;5.7;5.1
45788;PMS7003;31492;54.856;26.318;2023-05-23T15:56:26;6;5.7;4.8
45788;PMS7003;31492;54.856;26.318;2023-05-23T16:01:26;6.8;5.7;4.9
45788;PMS7003;31492;54.856;26.318;2023-05-23T16:06:26;5.8;5.8;5.2
45788;PMS7003;31492;54.856;26.318;2023-05-23T16:12:00;6.2;5.6;5
45788;PMS7003;31492;54.856;26.318;2023-05-23T16:16:32;7.1;6.7;5.9
45788;PMS7003;31492;54.856;26.318;2023-05-23T16:21:26;6.1;5.7;4.9
45788;PMS7003;31492;54.856;26.318;2023-05-23T16:31:27;8.1;7.2;5.3
45788;PMS7003;31492;54.856;26.318;2023-05-23T16:36:38;7.1;6.5;5.6
45788;PMS7003;31492;54.856;26.318;2023-05-23T16:41:54;7.2;6.4;5.2
45788;PMS7003;31492;54.856;26.318;2023-05-23T16:46:50;6.9;6.5;5.8
45788;PMS7003;31492;54.856;26.318;2023-05-23T17:21:52;9;8.6;7
45788;PMS7003;31492;54.856;26.318;2023-05-23T17:26:26;10.1;9.1;7.3
45788;PMS7003;31492;54.856;26.318;2023-05-23T17:31:46;9.5;8.8;7.5
45788;PMS7003;31492;54.856;26.318;2023-05-23T17:36:44;8.7;8;6.7
45788;PMS7003;31492;54.856;26.318;2023-05-23T17:42:06;8.9;7.9;6.8
45788;PMS7003;31492;54.856;26.318;2023-05-23T17:46:26;9.6;9;7.5
45788;PMS7003;31492;54.856;26.318;2023-05-23T17:51:26;9.8;9;7.7
45788;PMS7003;31492;54.856;26.318;2023-05-23T17:56:41;10.3;9.2;8
45788;PMS7003;31492;54.856;26.318;2023-05-23T18:01:40;10.3;9.8;8.3
45788;PMS7003;31492;54.856;26.318;2023-05-23T18:06:38;11.3;10;8.3
45788;PMS7003;31492;54.856;26.318;2023-05-23T18:11:26;10.9;10.1;8.9
45788;PMS7003;31492;54.856;26.318;2023-05-23T18:16:38;11.3;10.3;8.6
45788;PMS7003;31492;54.856;26.318;2023-05-23T18:21:26;11.2;10.2;8.7
45788;PMS7003;31492;54.856;26.318;2023-05-23T18:26:26;11.9;10.3;8.9
45788;PMS7003;31492;54.856;26.318;2023-05-23T19:01:32;12.1;10.9;9.2
45788;PMS7003;31492;54.856;26.318;2023-05-23T19:06:52;11.6;10.8;9.6
45788;PMS7003;31492;54.856;26.318;2023-05-23T19:11:26;12.2;11.6;9.6
45788;PMS7003;31492;54.856;26.318;2023-05-23T19:16:32;12.6;11.7;9.5
45788;PMS7003;31492;54.856;26.318;2023-05-23T19:21:58;12.9;12;9.8
45788;PMS7003;31492;54.856;26.318;2023-05-23T19:26:44;13.4;12.2;10
45788;PMS7003;31492;54.856;26.318;2023-05-23T19:31:40;12.3;12.1;10.2
45788;PMS7003;31492;54.856;26.318;2023-05-23T19:36:32;13.5;12.6;10.5
45788;PMS7003;31492;54.856;26.318;2023-05-23T19:41:38;13.4;12;10
45788;PMS7003;31492;54.856;26.318;2023-05-23T19:46:26;13.2;11.9;10.1
45788;PMS7003;31492;54.856;26.318;2023-05-23T19:51:27;12.4;11.6;9.4
45788;PMS7003;31492;54.856;26.318;2023-05-23T19:56:50;11.9;11.1;9.5
45788;PMS7003;31492;54.856;26.318;2023-05-23T20:01:26;13.4;13;10.7
45788;PMS7003;31492;54.856;26.318;2023-05-23T20:06:44;13.3;12;9.9
45788;PMS7003;31492;54.856;26.318;2023-05-23T20:11:26;13.1;12.3;10.1
45788;PMS7003;31492;54.856;26.318;2023-05-23T20:16:52;13.3;12.5;10.2
45788;PMS7003;31492;54.856;26.318;2023-05-23T20:21:26;13.5;12.2;10.1
45788;PMS7003;31492;54.856;26.318;2023-05-23T20:26:40;13.9;12.9;10.8
45788;PMS7003;31492;54.856;26.318;2023-05-23T20:31:26;13.2;11.9;9.7
45788;PMS7003;31492;54.856;26.318;2023-05-23T20:36:26;12.8;12.4;10.6
45788;PMS7003;31492;54.856;26.318;2023-05-23T20:41:36;14.4;13.5;10.8
45788;PMS7003;31492;54.856;26.318;2023-05-23T20:46:40;13.5;12.4;10.4
45788;PMS7003;31492;54.856;26.318;2023-05-23T20:51:38;14.5;13.4;10.9
45788;PMS7003;31492;54.856;26.318;2023-05-23T20:56:26;14.7;13.6;11.1
45788;PMS7003;31492;54.856;26.318;2023-05-23T21:01:38;13.8;12.4;10.3
45788;PMS7003;31492;54.856;26.318;2023-05-23T21:06:46;14.8;13.3;11.1
45788;PMS7003;31492;54.856;26.318;2023-05-23T21:11:26;14.4;13.5;11.3
45788;PMS7003;31492;54.856;26.318;2023-05-23T21:16:52;14.1;13.3;11.1
45788;PMS7003;31492;54.856;26.318;2023-05-23T21:21:52;15.8;14.2;11.7
45788;PMS7003;31492;54.856;26.318;2023-05-23T21:26:38;15.1;13.1;11
45788;PMS7003;31492;54.856;26.318;2023-05-23T21:31:26;14.8;13.1;10.5
45788;PMS7003;31492;54.856;26.318;2023-05-23T21:36:26;14.1;13.1;10.6
45788;PMS7003;31492;54.856;26.318;2023-05-23T21:41:38;14.6;13.8;11.4
45788;PMS7003;31492;54.856;26.318;2023-05-23T21:46:26;14.6;13.5;11.1
45788;PMS7003;31492;54.856;26.318;2023-05-23T21:51:38;14.1;13.2;11.3
45788;PMS7003;31492;54.856;26.318;2023-05-23T21:56:40;15.1;13.2;10.9
45788;PMS7003;31492;54.856;26.318;2023-05-23T22:01:26;14;12;10.2
45788;PMS7003;31492;54.856;26.318;2023-05-23T22:06:50;13.4;12.1;9.7
45788;PMS7003;31492;54.856;26.318;2023-05-23T22:11:40;14.9;13.8;11.2
45788;PMS7003;31492;54.856;26.318;2023-05-23T22:16:26;15.3;13.4;10.8
45788;PMS7003;31492;54.856;26.318;2023-05-23T22:21:42;15.4;14.3;11.5
45788;PMS7003;31492;54.856;26.318;2023-05-23T22:26:44;14.3;12.8;10.8
45788;PMS7003;31492;54.856;26.318;2023-05-23T22:31:42;14.1;12.9;10.1
45788;PMS7003;31492;54.856;26.318;2023-05-23T22:36:26;14.5;13.3;11.1
45788;PMS7003;31492;54.856;26.318;2023-05-23T22:41:40;14.8;13.1;10.7
45788;PMS7003;31492;54.856;26.318;2023-05-23T22:46:26;15.6;14.2;11.7
45788;PMS7003;31492;54.856;26.318;2023-05-23T22:51:38;17;15.2;12.2
45788;PMS7003;31492;54.856;26.318;2023-05-23T22:56:38;15.6;14.8;12.2
